Time;durP1;ratioP1;P1;durP2;ratioP2;P2;SDS_P1;SDS_P2;PMS_P1;PMS_P2;Temp;Humidity;BMP_temperature;BMP_pressure;BME280_temperature;BME280_humidity;BME280_pressure;Samples;Min_cycle;Max_cycle;Signal;HPM_P1;HPM_P2
2023/09/19 00:01:44;;;;;;;8.02;1.45;;;14.60;99.90;;;;;;4999944;28;20037;-71
2023/09/19 00:04:09;;;;;;;10.88;2.00;;;14.50;99.90;;;;;;5016019;28;20041;-72
2023/09/19 00:06:38;;;;;;;11.40;2.40;;;14.50;99.90;;;;;;5015832;28;20033;-72
2023/09/19 00:09:04;;;;;;;11.18;1.73;;;14.50;99.90;;;;;;5016068;28;20502;-72
2023/09/19 00:11:30;;;;;;;8.98;1.85;;;14.40;99.90;;;;;;5015781;28;20122;-72
2023/09/19 00:13:59;;;;;;;11.10;2.10;;;14.40;99.90;;;;;;5015627;28;20051;-71
2023/09/19 00:16:25;;;;;;;11.45;2.00;;;14.30;99.90;;;;;;5015772;28;20041;-71
2023/09/19 00:18:52;;;;;;;8.95;2.13;;;14.20;99.90;;;;;;4999544;28;20124;-72
2023/09/19 00:21:20;;;;;;;10.60;2.20;;;14.20;99.90;;;;;;5015677;28;20037;-72
2023/09/19 00:23:46;;;;;;;11.07;2.10;;;14.20;99.90;;;;;;5015593;28;20045;-72
2023/09/19 00:26:12;;;;;;;9.93;2.10;;;14.20;99.90;;;;;;5015591;28;20045;-72
2023/09/19 00:28:39;;;;;;;8.13;1.95;;;14.20;99.90;;;;;;5015441;28;20046;-72
2023/09/19 00:31:08;;;;;;;12.02;1.80;;;14.10;99.90;;;;;;5015186;28;20092;-72
2023/09/19 00:33:34;;;;;;;15.20;2.67;;;14.10;99.90;;;;;;5015289;28;20076;-71
2023/09/19 00:36:01;;;;;;;13.13;1.95;;;14.10;99.90;;;;;;5015525;28;20064;-71
2023/09/19 00:38:27;;;;;;;14.73;2.38;;;14.00;99.90;;;;;;5015651;28;20075;-71
2023/09/19 00:40:54;;;;;;;13.15;2.17;;;14.00;99.90;;;;;;5015435;28;20406;-72
2023/09/19 00:43:20;;;;;;;14.25;2.03;;;14.00;99.90;;;;;;5015575;28;20402;-71
2023/09/19 00:45:49;;;;;;;13.23;2.45;;;14.00;99.90;;;;;;5015831;28;20140;-71
2023/09/19 00:48:17;;;;;;;7.60;1.67;;;13.90;99.90;;;;;;5015640;28;20041;-71
2023/09/19 00:50:43;;;;;;;11.85;2.38;;;13.90;99.90;;;;;;5015332;28;20107;-71
2023/09/19 00:53:13;;;;;;;9.68;2.22;;;13.90;99.90;;;;;;4998975;28;20044;-71
2023/09/19 00:55:40;;;;;;;10.48;2.15;;;13.80;99.90;;;;;;5015256;28;20033;-71
2023/09/19 00:58:06;;;;;;;12.77;2.33;;;13.70;99.90;;;;;;5015283;28;20077;-71
2023/09/19 01:00:33;;;;;;;14.18;2.28;;;13.70;99.90;;;;;;5015497;28;20120;-71
2023/09/19 01:03:01;;;;;;;9.60;2.38;;;13.70;99.90;;;;;;5015151;28;20410;-71
2023/09/19 01:05:27;;;;;;;13.02;2.53;;;13.60;99.90;;;;;;5015227;28;20044;-71
2023/09/19 01:07:53;;;;;;;13.63;2.50;;;13.60;99.90;;;;;;5015207;28;20497;-72
2023/09/19 01:10:20;;;;;;;13.43;3.08;;;13.50;99.90;;;;;;5015392;28;20053;-72
2023/09/19 01:13:11;;;;;;;9.00;2.50;;;13.50;99.90;;;;;;5015009;28;20041;-72
2023/09/19 01:15:40;;;;;;;11.07;2.40;;;13.50;99.90;;;;;;5015183;28;20041;-72
2023/09/19 01:18:30;;;;;;;10.27;2.30;;;13.50;99.90;;;;;;5015321;28;20048;-72
2023/09/19 01:21:28;;;;;;;12.07;2.30;;;13.60;99.90;;;;;;5015397;28;20041;-72
2023/09/19 01:24:22;;;;;;;13.82;2.45;;;13.60;99.90;;;;;;5015153;28;20148;-72
2023/09/19 01:26:51;;;;;;;9.75;2.42;;;13.60;99.90;;;;;;5015037;28;20033;-72
2023/09/19 01:29:33;;;;;;;10.70;2.00;;;13.60;99.90;;;;;;5014983;28;20042;-72
2023/09/19 01:32:03;;;;;;;16.87;2.20;;;13.60;99.90;;;;;;5015122;28;20057;-72
2023/09/19 01:34:47;;;;;;;12.02;2.03;;;13.60;99.90;;;;;;5015132;28;20276;-72
2023/09/19 01:37:14;;;;;;;11.05;2.58;;;13.60;99.90;;;;;;4998894;28;20073;-72
2023/09/19 01:39:40;;;;;;;10.07;2.20;;;13.50;99.90;;;;;;5015143;28;20119;-72
2023/09/19 01:42:35;;;;;;;11.80;2.70;;;13.50;99.90;;;;;;5017984;28;20045;-72
2023/09/19 01:45:15;;;;;;;9.95;2.22;;;13.50;99.90;;;;;;5018590;28;20084;-72
2023/09/19 01:47:51;;;;;;;12.55;2.58;;;13.60;99.90;;;;;;5018489;28;20056;-72
2023/09/19 01:50:45;;;;;;;10.70;2.28;;;13.40;99.90;;;;;;5018409;28;20494;-72
2023/09/19 01:53:28;;;;;;;12.27;2.35;;;13.50;99.90;;;;;;5018352;28;20449;-72
2023/09/19 01:55:55;;;;;;;8.07;2.10;;;13.40;99.90;;;;;;5018608;28;20041;-72
2023/09/19 01:58:31;;;;;;;14.93;2.78;;;13.40;99.90;;;;;;5001907;28;20040;-72
2023/09/19 02:00:59;;;;;;;9.48;2.70;;;13.30;99.90;;;;;;5018591;28;20045;-72
2023/09/19 02:03:27;;;;;;;12.50;2.78;;;13.30;99.90;;;;;;5018079;28;20037;-72
2023/09/19 02:05:53;;;;;;;13.45;2.67;;;13.30;99.90;;;;;;5018351;28;20045;-72
2023/09/19 02:08:20;;;;;;;12.90;2.83;;;13.30;99.90;;;;;;5018045;28;20426;-72
2023/09/19 02:10:49;;;;;;;12.98;2.80;;;13.30;99.90;;;;;;5017987;28;20481;-72
2023/09/19 02:13:19;;;;;;;13.05;2.95;;;13.10;99.90;;;;;;5017766;28;20128;-72
2023/09/19 02:15:46;;;;;;;10.05;2.72;;;13.20;99.90;;;;;;5017977;28;20041;-72
2023/09/19 02:18:12;;;;;;;13.25;2.85;;;13.10;99.90;;;;;;5017868;28;20037;-72
2023/09/19 02:20:39;;;;;;;12.52;2.45;;;13.10;99.90;;;;;;5018094;28;20068;-72
2023/09/19 02:23:05;;;;;;;10.95;2.40;;;13.10;99.90;;;;;;5017941;28;20099;-72
2023/09/19 02:25:31;;;;;;;12.70;2.53;;;13.00;99.90;;;;;;5018016;28;20560;-72
2023/09/19 02:27:58;;;;;;;10.18;2.33;;;13.00;99.90;;;;;;5017685;28;20049;-72
2023/09/19 02:30:25;;;;;;;15.43;2.35;;;13.00;99.90;;;;;;5017591;28;20049;-72
2023/09/19 02:32:51;;;;;;;13.07;2.80;;;12.90;99.90;;;;;;5001079;28;20042;-72
2023/09/19 02:35:19;;;;;;;15.98;2.55;;;12.90;99.90;;;;;;5017578;28;20041;-72
2023/09/19 02:37:48;;;;;;;10.32;2.30;;;12.90;99.90;;;;;;5001156;28;20040;-72
2023/09/19 02:40:21;;;;;;;12.50;2.38;;;12.80;99.90;;;;;;5017698;28;20136;-72
2023/09/19 02:42:53;;;;;;;12.43;2.40;;;12.90;99.90;;;;;;5017415;28;20073;-72
2023/09/19 02:45:19;;;;;;;11.32;2.60;;;12.90;99.90;;;;;;5017614;28;20498;-72
2023/09/19 02:47:46;;;;;;;10.52;2.63;;;12.80;99.90;;;;;;5017352;28;20037;-72
2023/09/19 02:50:13;;;;;;;11.00;2.17;;;12.80;99.90;;;;;;5017218;28;20048;-72
2023/09/19 02:52:43;;;;;;;10.70;2.33;;;12.70;99.90;;;;;;5016494;28;20041;-72
2023/09/19 02:55:10;;;;;;;8.25;2.03;;;12.80;99.90;;;;;;5017512;28;20045;-72
2023/09/19 02:57:40;;;;;;;10.82;2.58;;;12.70;99.90;;;;;;5017146;28;20051;-72
2023/09/19 03:00:07;;;;;;;10.95;2.47;;;12.70;99.90;;;;;;5017117;28;20512;-72
2023/09/19 03:02:34;;;;;;;12.02;2.30;;;12.70;99.90;;;;;;5017186;28;20038;-72
2023/09/19 03:05:00;;;;;;;12.27;2.78;;;12.70;99.90;;;;;;5016992;28;20098;-72
2023/09/19 03:07:26;;;;;;;11.18;2.50;;;12.70;99.90;;;;;;5016909;28;20041;-72
2023/09/19 03:09:52;;;;;;;9.57;2.03;;;12.80;99.90;;;;;;5016942;28;20061;-72
2023/09/19 03:12:18;;;;;;;13.75;2.70;;;12.80;99.90;;;;;;5016724;28;20041;-72
2023/09/19 03:14:44;;;;;;;13.55;2.45;;;12.90;99.90;;;;;;5017077;28;20037;-72
2023/09/19 03:17:09;;;;;;;13.18;2.33;;;12.80;99.90;;;;;;5017063;28;20379;-72
2023/09/19 03:19:36;;;;;;;9.98;1.80;;;12.90;99.90;;;;;;5000478;28;20398;-72
2023/09/19 03:22:03;;;;;;;13.65;2.67;;;12.90;99.90;;;;;;5016576;28;20045;-72
2023/09/19 03:24:29;;;;;;;12.45;2.10;;;13.00;99.90;;;;;;5000261;28;20043;-71
2023/09/19 03:26:54;;;;;;;13.23;2.33;;;13.00;99.90;;;;;;5000321;28;20501;-72
2023/09/19 03:29:20;;;;;;;11.55;2.10;;;13.00;99.90;;;;;;5016516;28;20045;-72
2023/09/19 03:31:46;;;;;;;9.00;2.08;;;13.00;99.90;;;;;;5016553;28;20095;-72
2023/09/19 03:34:11;;;;;;;9.23;2.40;;;13.00;99.90;;;;;;5016536;28;20522;-72
2023/09/19 03:36:37;;;;;;;10.80;2.22;;;13.00;99.90;;;;;;5016459;28;20044;-72
2023/09/19 03:39:05;;;;;;;12.15;2.00;;;13.10;99.90;;;;;;5016379;28;20042;-72
2023/09/19 03:41:32;;;;;;;9.02;2.30;;;13.00;99.90;;;;;;5016292;28;20500;-72
2023/09/19 03:43:58;;;;;;;11.52;2.92;;;13.10;99.90;;;;;;5016208;28;20044;-72
2023/09/19 03:46:24;;;;;;;16.20;2.58;;;13.10;99.90;;;;;;5016242;28;20037;-72
2023/09/19 03:48:50;;;;;;;10.40;2.10;;;13.10;99.90;;;;;;5016231;28;20073;-72
2023/09/19 03:51:16;;;;;;;14.10;2.42;;;13.10;99.90;;;;;;5016435;28;20096;-72
2023/09/19 03:53:41;;;;;;;11.77;2.30;;;13.10;99.90;;;;;;5016025;28;20569;-72
2023/09/19 03:56:08;;;;;;;11.65;2.15;;;13.10;99.90;;;;;;5016090;28;20033;-72
2023/09/19 03:58:38;;;;;;;9.50;2.25;;;13.00;99.90;;;;;;5015992;28;20132;-72
2023/09/19 04:01:03;;;;;;;9.93;1.92;;;13.00;99.90;;;;;;5015994;28;20510;-72
2023/09/19 04:03:35;;;;;;;12.55;2.40;;;12.90;99.90;;;;;;5015878;28;20060;-72
2023/09/19 04:06:01;;;;;;;9.20;1.98;;;13.00;99.90;;;;;;5016002;28;20041;-72
2023/09/19 04:08:27;;;;;;;10.65;2.05;;;12.90;99.90;;;;;;5015888;28;20117;-72
2023/09/19 04:10:53;;;;;;;8.02;1.90;;;12.90;99.90;;;;;;5016963;28;20096;-72
2023/09/19 04:13:18;;;;;;;7.55;2.30;;;12.90;99.90;;;;;;5015613;28;20494;-72
2023/09/19 04:15:46;;;;;;;13.23;2.28;;;12.90;99.90;;;;;;5016060;28;20156;-72
2023/09/19 04:18:11;;;;;;;7.97;2.10;;;13.00;99.90;;;;;;5015754;28;20076;-72
2023/09/19 04:20:37;;;;;;;8.65;2.08;;;13.00;99.90;;;;;;5015661;28;20075;-72
2023/09/19 04:23:05;;;;;;;14.50;2.50;;;13.00;99.90;;;;;;4999280;28;20045;-72
2023/09/19 04:25:30;;;;;;;11.77;2.13;;;13.10;99.90;;;;;;5015657;28;20038;-72
2023/09/19 04:27:56;;;;;;;9.63;2.15;;;13.10;99.90;;;;;;5015619;28;20152;-72
2023/09/19 04:30:21;;;;;;;10.00;1.73;;;13.20;99.90;;;;;;5015575;28;20052;-72
2023/09/19 04:32:50;;;;;;;10.05;2.03;;;13.10;99.90;;;;;;5015419;28;20038;-72
2023/09/19 04:35:16;;;;;;;6.38;1.83;;;13.20;99.90;;;;;;5015506;28;20038;-72
2023/09/19 04:37:41;;;;;;;6.78;2.33;;;13.30;99.90;;;;;;5015702;28;20041;-72
2023/09/19 04:40:12;;;;;;;12.90;2.80;;;13.30;99.90;;;;;;5015715;28;20030;-72
2023/09/19 04:42:39;;;;;;;7.05;2.47;;;13.30;99.90;;;;;;5015422;28;20045;-72
2023/09/19 04:45:05;;;;;;;6.78;1.77;;;13.40;99.90;;;;;;5015411;28;20052;-72
2023/09/19 04:47:30;;;;;;;14.15;2.22;;;13.40;99.90;;;;;;5015636;28;20041;-72
2023/09/19 04:49:58;;;;;;;12.75;3.03;;;13.40;99.90;;;;;;5015438;28;20434;-72
2023/09/19 04:52:24;;;;;;;12.13;2.65;;;13.40;99.90;;;;;;5015226;28;20046;-71
2023/09/19 04:54:50;;;;;;;13.05;2.58;;;13.40;99.90;;;;;;5015285;28;20040;-71
2023/09/19 04:57:15;;;;;;;10.85;3.10;;;13.50;99.90;;;;;;5015315;28;20086;-71
2023/09/19 04:59:41;;;;;;;14.40;2.65;;;13.50;99.90;;;;;;5015517;28;20042;-71
2023/09/19 05:02:08;;;;;;;12.85;2.80;;;13.50;99.90;;;;;;5015428;28;20052;-71
2023/09/19 05:04:33;;;;;;;10.50;2.60;;;13.50;99.90;;;;;;5015193;28;20049;-71
2023/09/19 05:07:01;;;;;;;17.08;3.13;;;13.50;99.90;;;;;;5015232;28;20052;-71
2023/09/19 05:09:26;;;;;;;11.57;2.83;;;13.40;99.90;;;;;;5015192;28;20049;-71
2023/09/19 05:11:52;;;;;;;13.60;3.33;;;13.40;99.90;;;;;;5015056;28;20053;-72
2023/09/19 05:14:19;;;;;;;11.45;2.92;;;13.50;99.90;;;;;;5015067;28;20038;-71
2023/09/19 05:16:45;;;;;;;15.07;2.75;;;13.50;99.90;;;;;;5017923;28;20555;-71
2023/09/19 05:19:11;;;;;;;14.00;2.72;;;13.40;99.90;;;;;;5019289;28;20038;-71
2023/09/19 05:21:38;;;;;;;14.77;3.50;;;13.50;99.90;;;;;;5018983;28;20087;-71
2023/09/19 05:24:06;;;;;;;12.18;3.30;;;13.50;99.90;;;;;;5018837;28;20049;-71
2023/09/19 05:26:32;;;;;;;11.70;2.67;;;13.40;99.90;;;;;;5002798;28;20053;-71
2023/09/19 05:28:58;;;;;;;14.82;3.10;;;13.40;99.90;;;;;;5018776;28;20045;-71
2023/09/19 05:31:25;;;;;;;10.15;2.90;;;13.40;99.90;;;;;;5018687;28;20047;-71
2023/09/19 05:33:52;;;;;;;13.98;3.67;;;13.40;99.90;;;;;;5018638;28;20083;-71
2023/09/19 05:36:17;;;;;;;17.65;3.00;;;13.40;99.90;;;;;;5002581;28;20064;-71
2023/09/19 05:38:44;;;;;;;14.80;3.15;;;13.40;99.90;;;;;;5018624;28;20490;-71
2023/09/19 05:41:13;;;;;;;17.23;3.38;;;13.40;99.90;;;;;;5018604;28;20448;-71
2023/09/19 05:43:40;;;;;;;11.20;2.85;;;13.50;99.90;;;;;;5018512;28;20125;-71
2023/09/19 05:46:07;;;;;;;17.02;2.78;;;13.40;99.90;;;;;;5018450;28;20536;-71
2023/09/19 05:48:33;;;;;;;14.63;2.85;;;13.30;99.90;;;;;;5018449;28;20466;-71
2023/09/19 05:51:01;;;;;;;16.63;3.35;;;13.40;99.90;;;;;;5018409;28;20067;-71
2023/09/19 05:53:27;;;;;;;14.32;2.80;;;13.30;99.90;;;;;;5018322;28;20104;-71
2023/09/19 05:55:53;;;;;;;21.33;3.63;;;13.30;99.90;;;;;;5018362;28;20081;-71
2023/09/19 05:58:19;;;;;;;16.38;3.25;;;13.30;99.90;;;;;;5018226;28;20045;-71
2023/09/19 06:00:48;;;;;;;17.10;2.75;;;13.20;99.90;;;;;;5018267;28;20073;-71
2023/09/19 06:03:14;;;;;;;12.52;2.80;;;13.30;99.90;;;;;;5018367;28;20100;-71
2023/09/19 06:05:40;;;;;;;16.27;2.97;;;13.20;99.90;;;;;;5018146;28;20494;-71
2023/09/19 06:08:07;;;;;;;13.07;3.20;;;13.20;99.90;;;;;;5001960;28;20034;-71
2023/09/19 06:10:34;;;;;;;15.93;3.10;;;13.20;99.90;;;;;;5018008;28;20049;-71
2023/09/19 06:13:04;;;;;;;18.92;3.30;;;13.20;99.90;;;;;;5017964;28;20046;-71
2023/09/19 06:15:32;;;;;;;19.55;3.65;;;13.20;99.90;;;;;;5017995;28;20482;-71
2023/09/19 06:17:59;;;;;;;13.73;3.10;;;13.20;99.90;;;;;;5017883;28;20038;-71
2023/09/19 06:20:26;;;;;;;13.93;2.95;;;13.30;99.90;;;;;;5017848;28;20037;-71
2023/09/19 06:22:52;;;;;;;13.35;3.17;;;13.20;99.90;;;;;;5017851;28;20045;-70
2023/09/19 06:25:21;;;;;;;16.25;3.13;;;13.30;99.90;;;;;;5017779;28;20138;-70
2023/09/19 06:27:53;;;;;;;15.48;3.22;;;13.30;99.90;;;;;;5016510;28;20620;-71
2023/09/19 06:30:21;;;;;;;17.38;2.88;;;13.30;99.90;;;;;;5017700;28;20049;-71
2023/09/19 06:32:48;;;;;;;12.02;2.60;;;13.30;99.90;;;;;;5017346;28;20395;-71
2023/09/19 06:35:15;;;;;;;14.00;2.47;;;13.40;99.90;;;;;;5001322;28;20069;-71
2023/09/19 06:37:43;;;;;;;16.08;3.08;;;13.30;99.90;;;;;;5017814;28;20037;-71
2023/09/19 06:40:14;;;;;;;12.98;2.83;;;13.40;99.90;;;;;;5017734;28;20059;-71
2023/09/19 06:43:06;;;;;;;13.80;3.25;;;13.40;99.90;;;;;;5017728;28;20037;-71
2023/09/19 06:45:32;;;;;;;12.07;2.78;;;13.30;99.90;;;;;;5013517;28;20057;-71
2023/09/19 06:47:59;;;;;;;16.13;3.20;;;13.30;99.90;;;;;;5017453;28;20099;-71
2023/09/19 06:50:26;;;;;;;15.00;3.08;;;13.30;99.90;;;;;;5001352;28;20049;-71
2023/09/19 06:52:53;;;;;;;18.30;3.30;;;13.20;99.90;;;;;;5017486;28;20456;-71
2023/09/19 06:55:21;;;;;;;18.00;3.33;;;13.20;99.90;;;;;;5017351;28;20038;-72
2023/09/19 06:57:47;;;;;;;15.55;3.17;;;13.20;99.90;;;;;;5017079;28;20041;-72
2023/09/19 07:00:21;;;;;;;13.82;2.42;;;13.20;99.90;;;;;;5017310;28;20048;-72
2023/09/19 07:03:07;;;;;;;11.60;2.85;;;13.30;99.90;;;;;;5017005;28;20056;-72
2023/09/19 07:05:37;;;;;;;15.20;2.67;;;13.30;99.90;;;;;;5017272;28;20107;-72
2023/09/19 07:08:03;;;;;;;17.27;3.45;;;13.40;99.90;;;;;;5017183;28;20085;-71
2023/09/19 07:10:29;;;;;;;13.80;2.75;;;13.50;99.90;;;;;;5016951;28;20454;-71
2023/09/19 07:13:10;;;;;;;13.45;2.80;;;13.60;99.90;;;;;;5016678;28;20045;-71
2023/09/19 07:15:38;;;;;;;12.00;2.85;;;13.70;99.90;;;;;;5000543;28;20083;-71
2023/09/19 07:18:05;;;;;;;12.10;2.85;;;13.80;99.90;;;;;;5016917;28;20041;-71
2023/09/19 07:20:32;;;;;;;11.80;2.75;;;13.90;99.90;;;;;;5016790;28;20120;-72
2023/09/19 07:23:01;;;;;;;12.00;2.85;;;14.00;99.90;;;;;;5016863;28;20045;-72
2023/09/19 07:25:27;;;;;;;13.15;2.63;;;14.00;99.90;;;;;;5016573;28;20106;-72
2023/09/19 07:27:55;;;;;;;18.58;2.95;;;14.10;99.90;;;;;;5016573;28;20128;-72
2023/09/19 07:30:21;;;;;;;17.42;3.20;;;14.10;99.90;;;;;;5016585;28;20041;-72
2023/09/19 07:32:47;;;;;;;14.40;2.80;;;14.10;99.90;;;;;;4999941;28;20116;-72
2023/09/19 07:35:12;;;;;;;16.42;3.53;;;14.20;99.90;;;;;;5016495;28;20116;-72
2023/09/19 07:37:38;;;;;;;14.65;2.65;;;14.30;99.90;;;;;;5016348;28;20091;-72
2023/09/19 07:40:07;;;;;;;12.45;2.58;;;14.30;99.90;;;;;;5016073;28;20034;-72
2023/09/19 07:42:35;;;;;;;12.30;2.80;;;14.30;99.90;;;;;;5016319;28;20056;-72
2023/09/19 07:45:01;;;;;;;14.82;3.05;;;14.30;99.90;;;;;;5016391;28;20167;-72
2023/09/19 07:47:27;;;;;;;15.10;2.65;;;14.20;99.90;;;;;;5016170;28;20052;-72
2023/09/19 07:49:53;;;;;;;13.05;3.25;;;14.20;99.90;;;;;;5016202;28;20560;-72
2023/09/19 07:52:19;;;;;;;14.13;3.83;;;14.30;99.90;;;;;;5016005;28;20049;-72
2023/09/19 07:54:44;;;;;;;10.40;2.90;;;14.40;99.90;;;;;;5000031;28;20041;-72
2023/09/19 07:57:11;;;;;;;10.80;2.67;;;14.50;99.90;;;;;;4999745;28;20120;-72
2023/09/19 07:59:38;;;;;;;12.23;2.80;;;14.60;99.90;;;;;;5016025;28;20042;-72
2023/09/19 08:02:04;;;;;;;13.45;2.80;;;14.80;99.90;;;;;;5016208;28;20046;-72
2023/09/19 08:04:33;;;;;;;13.18;2.67;;;14.80;99.90;;;;;;5016147;28;20064;-72
2023/09/19 08:06:59;;;;;;;12.05;3.10;;;14.80;99.90;;;;;;5015890;28;20388;-72
2023/09/19 08:09:24;;;;;;;10.32;2.83;;;14.80;99.90;;;;;;5015823;28;20040;-72
2023/09/19 08:11:50;;;;;;;17.58;3.75;;;14.80;99.90;;;;;;5015759;28;20029;-72
2023/09/19 08:14:16;;;;;;;11.80;2.80;;;14.90;99.90;;;;;;5015746;28;20041;-72
2023/09/19 08:16:42;;;;;;;11.68;2.60;;;14.90;99.90;;;;;;5015791;28;20051;-72
2023/09/19 08:19:10;;;;;;;14.13;3.22;;;15.00;99.90;;;;;;5015749;28;20040;-72
2023/09/19 08:21:36;;;;;;;16.40;3.65;;;15.10;99.90;;;;;;5015791;28;20068;-73
2023/09/19 08:24:05;;;;;;;16.90;3.70;;;15.20;99.90;;;;;;5015877;28;20041;-73
2023/09/19 08:26:31;;;;;;;13.70;3.45;;;15.30;99.90;;;;;;5015584;28;20055;-73
2023/09/19 08:28:57;;;;;;;12.70;3.47;;;15.50;99.90;;;;;;5015602;28;20045;-73
2023/09/19 08:31:23;;;;;;;12.90;3.10;;;15.50;99.90;;;;;;5015868;28;20084;-73
2023/09/19 08:33:51;;;;;;;15.82;3.45;;;15.60;99.90;;;;;;5015366;28;20040;-73
2023/09/19 08:36:17;;;;;;;15.15;3.20;;;15.60;99.90;;;;;;4999159;28;20033;-73
2023/09/19 08:38:42;;;;;;;12.95;2.90;;;15.60;99.90;;;;;;4999089;28;20033;-73
2023/09/19 08:41:08;;;;;;;15.48;3.35;;;15.60;99.90;;;;;;4999225;28;20037;-73
2023/09/19 08:43:35;;;;;;;11.02;3.30;;;15.60;99.90;;;;;;5015383;28;20053;-74
2023/09/19 08:46:14;;;;;;;15.80;3.28;;;15.70;99.90;;;;;;5015392;28;20045;-74
2023/09/19 08:49:12;;;;;;;12.68;3.47;;;15.90;99.90;;;;;;5015470;28;20056;-73
2023/09/19 08:51:48;;;;;;;16.58;3.50;;;16.00;99.90;;;;;;5014981;28;20490;-73
2023/09/19 08:54:29;;;;;;;18.38;3.20;;;16.10;99.90;;;;;;5015290;28;20080;-73
2023/09/19 08:56:56;;;;;;;16.25;3.55;;;16.20;99.90;;;;;;5015362;28;20146;-73
2023/09/19 08:59:26;;;;;;;16.02;3.92;;;16.20;99.90;;;;;;5015315;28;20057;-73
2023/09/19 09:01:53;;;;;;;16.83;3.83;;;16.20;99.90;;;;;;5015203;28;20037;-74
2023/09/19 09:04:20;;;;;;;20.83;5.35;;;16.20;99.90;;;;;;4999188;28;20041;-73
2023/09/19 09:06:49;;;;;;;17.60;3.58;;;16.30;99.90;;;;;;5015140;28;20041;-73
2023/09/19 09:09:15;;;;;;;17.13;3.15;;;16.40;99.90;;;;;;5015174;28;20041;-73
2023/09/19 09:11:41;;;;;;;13.75;3.35;;;16.50;99.90;;;;;;5015191;28;20049;-74
2023/09/19 09:14:09;;;;;;;18.60;4.70;;;16.80;99.90;;;;;;5014994;28;20045;-74
2023/09/19 09:16:35;;;;;;;21.30;3.70;;;17.00;99.90;;;;;;5015081;28;20038;-74
2023/09/19 09:19:01;;;;;;;13.48;3.42;;;17.30;99.90;;;;;;5015058;28;20045;-73
2023/09/19 09:21:28;;;;;;;13.90;3.83;;;17.40;99.90;;;;;;5015116;28;20043;-73
2023/09/19 09:23:54;;;;;;;11.73;2.97;;;17.40;99.90;;;;;;5015215;28;20537;-73
2023/09/19 09:26:42;;;;;;;16.17;3.85;;;17.60;99.90;;;;;;5015256;28;20049;-73
2023/09/19 09:29:08;;;;;;;12.40;2.70;;;17.60;99.90;;;;;;5015039;28;20084;-73
2023/09/19 09:31:33;;;;;;;17.88;3.60;;;17.80;99.90;;;;;;5014861;28;20081;-74
2023/09/19 09:34:00;;;;;;;15.65;3.50;;;17.90;99.90;;;;;;5014899;28;20111;-73
2023/09/19 09:36:38;;;;;;;16.55;3.20;;;17.80;99.90;;;;;;5015210;28;20037;-73
2023/09/19 09:39:25;;;;;;;13.60;3.10;;;17.70;99.90;;;;;;5014789;28;20045;-73
2023/09/19 09:41:50;;;;;;;14.88;3.30;;;17.80;99.90;;;;;;5014829;28;20068;-73
2023/09/19 09:44:20;;;;;;;17.80;3.70;;;17.90;99.90;;;;;;4998543;28;20041;-73
2023/09/19 09:49:35;;;;;;;17.27;3.95;;;17.80;99.90;;;;;;5015187;28;20084;-73
2023/09/19 09:52:16;;;;;;;19.77;4.05;;;17.90;99.90;;;;;;5014703;28;20092;-74
2023/09/19 09:55:05;;;;;;;10.65;3.35;;;18.00;99.90;;;;;;5014982;28;20170;-73
2023/09/19 09:57:30;;;;;;;18.35;4.15;;;17.80;99.90;;;;;;4998481;28;20088;-77
2023/09/19 09:59:59;;;;;;;13.38;2.85;;;17.80;99.90;;;;;;5014730;28;20033;-76
2023/09/19 10:02:32;;;;;;;12.43;3.20;;;17.60;99.90;;;;;;5016911;28;20084;-73
2023/09/19 10:05:09;;;;;;;14.50;3.38;;;17.60;99.90;;;;;;5018202;28;20100;-74
2023/09/19 10:07:40;;;;;;;12.65;3.05;;;17.50;99.90;;;;;;5001774;28;20453;-73
2023/09/19 10:10:16;;;;;;;15.38;3.42;;;17.60;99.90;;;;;;5018094;28;20048;-73
2023/09/19 10:12:50;;;;;;;15.43;4.05;;;17.70;99.90;;;;;;5017853;28;20129;-73
2023/09/19 10:15:20;;;;;;;16.77;3.20;;;17.70;99.90;;;;;;5018419;28;20107;-74
2023/09/19 10:17:46;;;;;;;14.52;3.58;;;17.80;99.90;;;;;;5018008;28;20037;-74
2023/09/19 10:23:00;;;;;;;13.75;3.17;;;17.60;99.90;;;;;;5018424;28;20052;-73
2023/09/19 10:25:30;;;;;;;12.77;4.18;;;17.60;99.90;;;;;;5018129;28;20095;-73
2023/09/19 10:28:02;;;;;;;10.15;2.90;;;17.70;99.90;;;;;;5001499;28;20509;-73
2023/09/19 10:30:30;;;;;;;12.48;3.45;;;17.80;99.90;;;;;;5017969;28;20045;-73
2023/09/19 10:33:05;;;;;;;14.07;3.75;;;18.00;99.90;;;;;;5017661;28;20168;-73
2023/09/19 10:35:32;;;;;;;12.65;3.28;;;18.00;99.90;;;;;;5001236;28;20557;-73
2023/09/19 10:38:01;;;;;;;14.32;3.30;;;17.80;99.90;;;;;;5017763;28;20048;-74
2023/09/19 10:40:31;;;;;;;14.70;3.38;;;17.80;99.90;;;;;;5017421;28;20033;-74
2023/09/19 10:43:05;;;;;;;15.18;3.08;;;17.80;99.90;;;;;;5017299;28;20501;-74
2023/09/19 10:45:32;;;;;;;13.90;2.83;;;17.90;99.90;;;;;;5017487;28;20037;-74
2023/09/19 10:47:58;;;;;;;12.20;3.35;;;18.00;99.90;;;;;;5000979;28;20048;-74
2023/09/19 10:50:25;;;;;;;18.33;4.20;;;18.10;99.90;;;;;;5017294;28;20095;-73
2023/09/19 10:52:58;;;;;;;11.18;2.88;;;18.20;99.90;;;;;;5017161;28;20048;-72
2023/09/19 10:55:27;;;;;;;12.63;3.17;;;18.30;99.90;;;;;;5017353;28;20063;-72
2023/09/19 10:57:53;;;;;;;16.83;3.00;;;18.30;99.90;;;;;;5017430;28;20117;-72
2023/09/19 11:00:28;;;;;;;15.82;3.05;;;18.20;99.90;;;;;;5017392;28;20038;-72
2023/09/19 11:03:09;;;;;;;15.73;3.33;;;18.10;99.90;;;;;;5017084;28;20041;-72
2023/09/19 11:05:40;;;;;;;9.65;3.13;;;18.20;99.90;;;;;;5000795;28;20045;-72
2023/09/19 11:08:11;;;;;;;13.65;2.90;;;18.30;99.90;;;;;;5017029;28;20045;-72
2023/09/19 11:10:51;;;;;;;12.10;3.15;;;18.30;99.90;;;;;;5000648;28;20535;-72
2023/09/19 11:13:29;;;;;;;14.45;3.15;;;18.40;99.90;;;;;;5016112;28;20383;-72
2023/09/19 11:15:58;;;;;;;10.27;2.72;;;18.40;99.90;;;;;;5016845;28;20037;-72
2023/09/19 11:18:42;;;;;;;11.77;2.92;;;18.30;99.90;;;;;;5016974;28;20521;-72
2023/09/19 11:21:29;;;;;;;13.60;2.65;;;18.10;99.90;;;;;;5016773;28;20048;-72
2023/09/19 11:24:10;;;;;;;14.20;3.45;;;18.10;99.90;;;;;;5016912;28;20049;-72
2023/09/19 11:27:14;;;;;;;13.55;2.92;;;18.10;99.90;;;;;;5016903;28;20498;-71
2023/09/19 11:29:40;;;;;;;13.02;2.78;;;18.10;99.90;;;;;;5016874;28;20049;-71
2023/09/19 11:32:06;;;;;;;14.88;2.65;;;18.30;99.90;;;;;;5016325;28;20556;-71
2023/09/19 11:34:44;;;;;;;12.98;2.55;;;18.30;99.90;;;;;;5016537;28;20037;-71
2023/09/19 11:37:11;;;;;;;17.10;3.30;;;18.40;99.90;;;;;;5016508;28;20124;-71
2023/09/19 11:39:38;;;;;;;17.67;3.08;;;18.30;99.90;;;;;;5016412;28;20048;-72
2023/09/19 11:42:53;;;;;;;13.73;2.92;;;18.30;99.90;;;;;;5016245;28;20120;-71
2023/09/19 11:45:49;;;;;;;12.88;2.67;;;18.30;99.90;;;;;;4995233;28;20053;-71
2023/09/19 11:48:18;;;;;;;11.45;2.78;;;18.10;99.90;;;;;;5016269;28;20612;-71
2023/09/19 11:50:45;;;;;;;12.43;3.00;;;18.00;99.90;;;;;;5016272;28;20084;-71
2023/09/19 11:53:12;;;;;;;12.75;2.42;;;18.00;99.90;;;;;;5016032;28;20045;-72
2023/09/19 11:55:43;;;;;;;10.75;2.55;;;18.00;99.90;;;;;;5016101;28;20120;-72
2023/09/19 11:58:09;;;;;;;13.13;3.10;;;17.90;99.90;;;;;;5016172;28;20030;-71
2023/09/19 12:00:39;;;;;;;16.70;3.25;;;17.80;99.90;;;;;;5016283;28;20043;-71
2023/09/19 12:03:11;;;;;;;16.52;3.42;;;17.80;99.90;;;;;;5015948;28;20077;-71
2023/09/19 12:05:37;;;;;;;10.82;2.60;;;17.70;99.90;;;;;;5015992;28;20053;-71
2023/09/19 12:08:07;;;;;;;10.75;2.60;;;17.80;99.90;;;;;;5015995;28;20037;-72
2023/09/19 12:10:33;;;;;;;11.80;3.13;;;17.80;99.90;;;;;;4999553;28;20033;-71
2023/09/19 12:12:59;;;;;;;9.60;2.50;;;17.80;99.90;;;;;;5015879;28;20046;-71
2023/09/19 12:15:34;;;;;;;15.45;2.70;;;17.70;99.90;;;;;;5015838;28;20493;-71
2023/09/19 12:18:00;;;;;;;13.43;2.88;;;17.60;99.90;;;;;;5015852;28;20104;-71
2023/09/19 12:20:44;;;;;;;12.13;2.58;;;17.60;99.90;;;;;;5015802;28;20052;-71
2023/09/19 12:23:16;;;;;;;11.10;2.50;;;17.50;99.90;;;;;;5015971;28;20081;-71
2023/09/19 12:25:52;;;;;;;12.27;2.73;;;17.50;99.90;;;;;;5014814;28;20120;-71
2023/09/19 12:28:17;;;;;;;11.88;2.20;;;17.50;99.90;;;;;;5015598;28;20805;-71
2023/09/19 12:30:43;;;;;;;9.13;2.85;;;17.40;99.90;;;;;;5015580;28;20128;-71
2023/09/19 12:33:21;;;;;;;10.35;2.63;;;17.40;99.90;;;;;;5015432;28;20506;-70
2023/09/19 12:35:47;;;;;;;9.45;2.50;;;17.50;99.90;;;;;;5015522;28;20044;-70
2023/09/19 12:38:28;;;;;;;12.45;2.17;;;17.50;99.90;;;;;;5015552;28;20189;-70
2023/09/19 12:41:01;;;;;;;10.63;2.10;;;17.60;99.90;;;;;;5015717;28;20446;-71
2023/09/19 12:43:36;;;;;;;9.43;1.92;;;17.60;99.90;;;;;;5015693;28;20045;-71
2023/09/19 12:46:02;;;;;;;10.10;2.20;;;17.60;99.90;;;;;;5015525;28;20052;-71
2023/09/19 12:48:34;;;;;;;9.52;2.05;;;17.60;99.90;;;;;;5015380;28;20502;-71
2023/09/19 12:51:01;;;;;;;12.63;2.30;;;17.70;99.90;;;;;;5015495;28;20084;-71
2023/09/19 12:53:31;;;;;;;8.30;2.55;;;17.70;99.90;;;;;;5015324;28;20096;-71
2023/09/19 12:56:00;;;;;;;16.08;2.42;;;17.60;99.90;;;;;;5015567;28;20449;-71